sensor_id;sensor_type;location;lat;lon;timestamp;P1;durP1;ratioP1;P2;durP2;ratioP2
69629;SDS011;56857;52.212;5.496;2023-09-18T00:00:59;18.60;;;13.23;;
69629;SDS011;56857;52.212;5.496;2023-09-18T00:03:25;19.50;;;13.90;;
69629;SDS011;56857;52.212;5.496;2023-09-18T00:05:50;19.27;;;12.57;;
69629;SDS011;56857;52.212;5.496;2023-09-18T00:08:17;18.95;;;12.18;;
69629;SDS011;56857;52.212;5.496;2023-09-18T00:10:53;20.52;;;13.63;;
69629;SDS011;56857;52.212;5.496;2023-09-18T00:13:20;16.65;;;12.43;;
69629;SDS011;56857;52.212;5.496;2023-09-18T00:15:46;18.05;;;12.88;;
69629;SDS011;56857;52.212;5.496;2023-09-18T00:18:13;17.55;;;12.25;;
69629;SDS011;56857;52.212;5.496;2023-09-18T00:20:39;17.30;;;11.77;;
69629;SDS011;56857;52.212;5.496;2023-09-18T00:23:04;18.88;;;12.48;;
69629;SDS011;56857;52.212;5.496;2023-09-18T00:25:30;18.38;;;12.50;;
69629;SDS011;56857;52.212;5.496;2023-09-18T00:27:55;17.10;;;12.55;;
69629;SDS011;56857;52.212;5.496;2023-09-18T00:30:20;18.73;;;12.35;;
69629;SDS011;56857;52.212;5.496;2023-09-18T00:32:45;18.63;;;13.60;;
69629;SDS011;56857;52.212;5.496;2023-09-18T00:35:11;16.00;;;11.67;;
69629;SDS011;56857;52.212;5.496;2023-09-18T00:37:36;17.55;;;11.95;;
69629;SDS011;56857;52.212;5.496;2023-09-18T00:40:01;15.57;;;11.67;;
69629;SDS011;56857;52.212;5.496;2023-09-18T00:42:27;16.42;;;12.50;;
69629;SDS011;56857;52.212;5.496;2023-09-18T00:44:52;19.07;;;12.30;;
69629;SDS011;56857;52.212;5.496;2023-09-18T00:47:18;18.65;;;11.85;;
69629;SDS011;56857;52.212;5.496;2023-09-18T00:49:44;17.33;;;12.40;;
69629;SDS011;56857;52.212;5.496;2023-09-18T00:52:13;19.38;;;12.65;;
69629;SDS011;56857;52.212;5.496;2023-09-18T00:54:40;18.10;;;12.20;;
69629;SDS011;56857;52.212;5.496;2023-09-18T00:57:07;19.00;;;14.10;;
69629;SDS011;56857;52.212;5.496;2023-09-18T00:59:33;19.98;;;13.48;;
69629;SDS011;56857;52.212;5.496;2023-09-18T01:01:59;17.25;;;13.02;;
69629;SDS011;56857;52.212;5.496;2023-09-18T01:04:25;21.33;;;12.85;;
69629;SDS011;56857;52.212;5.496;2023-09-18T01:06:51;17.05;;;12.82;;
69629;SDS011;56857;52.212;5.496;2023-09-18T01:09:17;19.67;;;13.18;;
69629;SDS011;56857;52.212;5.496;2023-09-18T01:11:51;18.45;;;13.13;;
69629;SDS011;56857;52.212;5.496;2023-09-18T01:16:59;18.63;;;13.45;;
69629;SDS011;56857;52.212;5.496;2023-09-18T01:19:38;21.02;;;13.15;;
69629;SDS011;56857;52.212;5.496;2023-09-18T01:22:06;22.13;;;12.98;;
69629;SDS011;56857;52.212;5.496;2023-09-18T01:24:32;20.88;;;14.68;;
69629;SDS011;56857;52.212;5.496;2023-09-18T01:26:58;18.92;;;13.32;;
69629;SDS011;56857;52.212;5.496;2023-09-18T01:29:23;18.38;;;12.75;;
69629;SDS011;56857;52.212;5.496;2023-09-18T01:31:49;16.37;;;12.63;;
69629;SDS011;56857;52.212;5.496;2023-09-18T01:34:25;19.63;;;13.35;;
69629;SDS011;56857;52.212;5.496;2023-09-18T01:36:57;17.90;;;13.40;;
69629;SDS011;56857;52.212;5.496;2023-09-18T01:39:23;20.23;;;14.00;;
69629;SDS011;56857;52.212;5.496;2023-09-18T01:41:50;20.13;;;13.05;;
69629;SDS011;56857;52.212;5.496;2023-09-18T01:44:15;18.23;;;12.80;;
69629;SDS011;56857;52.212;5.496;2023-09-18T01:46:41;18.85;;;13.40;;
69629;SDS011;56857;52.212;5.496;2023-09-18T01:49:09;21.92;;;13.50;;
69629;SDS011;56857;52.212;5.496;2023-09-18T01:51:34;21.67;;;14.25;;
69629;SDS011;56857;52.212;5.496;2023-09-18T01:53:59;20.83;;;13.63;;
69629;SDS011;56857;52.212;5.496;2023-09-18T01:56:25;20.02;;;14.18;;
69629;SDS011;56857;52.212;5.496;2023-09-18T01:58:50;22.88;;;14.38;;
69629;SDS011;56857;52.212;5.496;2023-09-18T02:01:15;19.95;;;13.38;;
69629;SDS011;56857;52.212;5.496;2023-09-18T02:03:41;21.38;;;13.70;;
69629;SDS011;56857;52.212;5.496;2023-09-18T02:06:06;21.30;;;13.60;;
69629;SDS011;56857;52.212;5.496;2023-09-18T02:08:34;21.60;;;13.50;;
69629;SDS011;56857;52.212;5.496;2023-09-18T02:11:00;19.70;;;13.70;;
69629;SDS011;56857;52.212;5.496;2023-09-18T02:13:25;21.23;;;14.10;;
69629;SDS011;56857;52.212;5.496;2023-09-18T02:15:50;22.52;;;14.32;;
69629;SDS011;56857;52.212;5.496;2023-09-18T02:18:16;21.70;;;14.70;;
69629;SDS011;56857;52.212;5.496;2023-09-18T02:20:41;21.15;;;14.25;;
69629;SDS011;56857;52.212;5.496;2023-09-18T02:23:07;24.85;;;14.77;;
69629;SDS011;56857;52.212;5.496;2023-09-18T02:25:32;22.70;;;14.40;;
69629;SDS011;56857;52.212;5.496;2023-09-18T02:27:58;23.40;;;15.50;;
69629;SDS011;56857;52.212;5.496;2023-09-18T02:30:23;22.55;;;14.98;;
69629;SDS011;56857;52.212;5.496;2023-09-18T02:32:48;19.08;;;14.55;;
69629;SDS011;56857;52.212;5.496;2023-09-18T02:35:14;25.55;;;14.93;;
69629;SDS011;56857;52.212;5.496;2023-09-18T02:37:39;24.02;;;14.35;;
69629;SDS011;56857;52.212;5.496;2023-09-18T02:40:05;22.98;;;14.02;;
69629;SDS011;56857;52.212;5.496;2023-09-18T02:42:30;25.63;;;14.93;;
69629;SDS011;56857;52.212;5.496;2023-09-18T02:44:56;19.25;;;13.05;;
69629;SDS011;56857;52.212;5.496;2023-09-18T02:47:21;19.55;;;13.35;;
69629;SDS011;56857;52.212;5.496;2023-09-18T02:49:46;20.08;;;13.15;;
69629;SDS011;56857;52.212;5.496;2023-09-18T02:52:12;21.52;;;13.80;;
69629;SDS011;56857;52.212;5.496;2023-09-18T02:54:37;18.37;;;12.90;;
69629;SDS011;56857;52.212;5.496;2023-09-18T02:57:02;21.38;;;13.48;;
69629;SDS011;56857;52.212;5.496;2023-09-18T02:59:27;16.02;;;11.70;;
69629;SDS011;56857;52.212;5.496;2023-09-18T03:01:53;18.77;;;12.90;;
69629;SDS011;56857;52.212;5.496;2023-09-18T03:04:18;24.52;;;14.90;;
69629;SDS011;56857;52.212;5.496;2023-09-18T03:06:43;19.13;;;12.60;;
69629;SDS011;56857;52.212;5.496;2023-09-18T03:09:09;19.48;;;13.65;;
69629;SDS011;56857;52.212;5.496;2023-09-18T03:11:34;18.92;;;13.43;;
69629;SDS011;56857;52.212;5.496;2023-09-18T03:13:59;20.00;;;12.77;;
69629;SDS011;56857;52.212;5.496;2023-09-18T03:16:25;20.33;;;12.40;;
69629;SDS011;56857;52.212;5.496;2023-09-18T03:18:50;20.07;;;12.07;;
69629;SDS011;56857;52.212;5.496;2023-09-18T03:21:15;20.13;;;12.57;;
69629;SDS011;56857;52.212;5.496;2023-09-18T03:23:41;16.67;;;12.43;;
69629;SDS011;56857;52.212;5.496;2023-09-18T03:26:06;19.90;;;12.23;;
69629;SDS011;56857;52.212;5.496;2023-09-18T03:28:31;16.70;;;11.50;;
69629;SDS011;56857;52.212;5.496;2023-09-18T03:30:57;17.25;;;12.18;;
69629;SDS011;56857;52.212;5.496;2023-09-18T03:33:23;17.70;;;11.82;;
69629;SDS011;56857;52.212;5.496;2023-09-18T03:35:48;18.35;;;12.38;;
69629;SDS011;56857;52.212;5.496;2023-09-18T03:38:15;17.45;;;13.10;;
69629;SDS011;56857;52.212;5.496;2023-09-18T03:40:40;18.43;;;12.30;;
69629;SDS011;56857;52.212;5.496;2023-09-18T03:43:05;18.58;;;11.45;;
69629;SDS011;56857;52.212;5.496;2023-09-18T03:45:30;17.88;;;12.27;;
69629;SDS011;56857;52.212;5.496;2023-09-18T03:47:56;18.93;;;13.47;;
69629;SDS011;56857;52.212;5.496;2023-09-18T03:50:21;20.67;;;13.02;;
69629;SDS011;56857;52.212;5.496;2023-09-18T03:52:46;19.47;;;14.47;;
69629;SDS011;56857;52.212;5.496;2023-09-18T03:55:12;20.60;;;13.55;;
69629;SDS011;56857;52.212;5.496;2023-09-18T03:57:38;22.10;;;14.43;;
69629;SDS011;56857;52.212;5.496;2023-09-18T04:00:04;19.70;;;13.15;;
69629;SDS011;56857;52.212;5.496;2023-09-18T04:02:30;21.60;;;13.73;;
69629;SDS011;56857;52.212;5.496;2023-09-18T04:04:55;22.98;;;14.63;;
69629;SDS011;56857;52.212;5.496;2023-09-18T04:07:21;22.58;;;14.48;;
69629;SDS011;56857;52.212;5.496;2023-09-18T04:09:46;21.52;;;13.93;;
69629;SDS011;56857;52.212;5.496;2023-09-18T04:12:11;22.60;;;14.25;;
69629;SDS011;56857;52.212;5.496;2023-09-18T04:14:37;21.20;;;14.43;;
69629;SDS011;56857;52.212;5.496;2023-09-18T04:17:03;21.70;;;14.75;;
69629;SDS011;56857;52.212;5.496;2023-09-18T04:19:28;24.83;;;16.13;;
69629;SDS011;56857;52.212;5.496;2023-09-18T04:21:54;25.27;;;15.82;;
69629;SDS011;56857;52.212;5.496;2023-09-18T04:24:20;24.35;;;15.88;;
69629;SDS011;56857;52.212;5.496;2023-09-18T04:26:46;22.67;;;16.10;;
69629;SDS011;56857;52.212;5.496;2023-09-18T04:29:11;32.83;;;16.58;;
69629;SDS011;56857;52.212;5.496;2023-09-18T04:31:36;25.00;;;15.23;;
69629;SDS011;56857;52.212;5.496;2023-09-18T04:34:02;22.30;;;14.25;;
69629;SDS011;56857;52.212;5.496;2023-09-18T04:36:27;23.48;;;14.98;;
69629;SDS011;56857;52.212;5.496;2023-09-18T04:38:52;23.52;;;14.75;;
69629;SDS011;56857;52.212;5.496;2023-09-18T04:41:17;22.00;;;14.65;;
69629;SDS011;56857;52.212;5.496;2023-09-18T04:43:43;22.65;;;15.52;;
69629;SDS011;56857;52.212;5.496;2023-09-18T04:46:08;26.38;;;15.05;;
69629;SDS011;56857;52.212;5.496;2023-09-18T04:48:33;29.50;;;16.15;;
69629;SDS011;56857;52.212;5.496;2023-09-18T04:50:59;25.40;;;14.45;;
69629;SDS011;56857;52.212;5.496;2023-09-18T04:53:26;20.70;;;13.63;;
69629;SDS011;56857;52.212;5.496;2023-09-18T04:55:52;26.15;;;14.00;;
69629;SDS011;56857;52.212;5.496;2023-09-18T04:58:17;20.10;;;13.80;;
69629;SDS011;56857;52.212;5.496;2023-09-18T05:00:43;21.58;;;13.75;;
69629;SDS011;56857;52.212;5.496;2023-09-18T05:03:09;22.15;;;12.98;;
69629;SDS011;56857;52.212;5.496;2023-09-18T05:05:35;21.73;;;13.77;;
69629;SDS011;56857;52.212;5.496;2023-09-18T05:08:01;26.05;;;15.10;;
69629;SDS011;56857;52.212;5.496;2023-09-18T05:10:27;30.50;;;16.67;;
69629;SDS011;56857;52.212;5.496;2023-09-18T05:12:53;40.23;;;17.53;;
69629;SDS011;56857;52.212;5.496;2023-09-18T05:15:18;64.00;;;17.30;;
69629;SDS011;56857;52.212;5.496;2023-09-18T05:17:45;50.65;;;15.35;;
69629;SDS011;56857;52.212;5.496;2023-09-18T05:20:12;25.73;;;12.18;;
69629;SDS011;56857;52.212;5.496;2023-09-18T05:22:38;17.23;;;8.27;;
69629;SDS011;56857;52.212;5.496;2023-09-18T05:25:04;17.65;;;8.00;;
69629;SDS011;56857;52.212;5.496;2023-09-18T05:27:29;14.55;;;9.38;;
69629;SDS011;56857;52.212;5.496;2023-09-18T05:29:55;16.08;;;10.15;;
69629;SDS011;56857;52.212;5.496;2023-09-18T05:32:20;18.27;;;10.67;;
69629;SDS011;56857;52.212;5.496;2023-09-18T05:34:45;16.88;;;10.10;;
69629;SDS011;56857;52.212;5.496;2023-09-18T05:37:11;17.10;;;9.50;;
69629;SDS011;56857;52.212;5.496;2023-09-18T05:39:36;19.33;;;9.88;;
69629;SDS011;56857;52.212;5.496;2023-09-18T05:42:01;16.55;;;8.57;;
69629;SDS011;56857;52.212;5.496;2023-09-18T05:44:27;11.77;;;8.30;;
69629;SDS011;56857;52.212;5.496;2023-09-18T05:46:52;12.52;;;8.05;;
69629;SDS011;56857;52.212;5.496;2023-09-18T05:49:17;13.45;;;7.57;;
69629;SDS011;56857;52.212;5.496;2023-09-18T05:51:43;14.55;;;7.20;;
69629;SDS011;56857;52.212;5.496;2023-09-18T05:54:08;12.65;;;6.22;;
69629;SDS011;56857;52.212;5.496;2023-09-18T05:56:33;12.20;;;5.90;;
69629;SDS011;56857;52.212;5.496;2023-09-18T05:58:59;10.95;;;5.88;;
69629;SDS011;56857;52.212;5.496;2023-09-18T06:01:24;11.48;;;5.43;;
69629;SDS011;56857;52.212;5.496;2023-09-18T06:03:49;10.82;;;5.53;;
69629;SDS011;56857;52.212;5.496;2023-09-18T06:06:15;9.57;;;5.28;;
69629;SDS011;56857;52.212;5.496;2023-09-18T06:08:40;10.15;;;5.15;;
69629;SDS011;56857;52.212;5.496;2023-09-18T06:11:05;10.45;;;5.18;;
69629;SDS011;56857;52.212;5.496;2023-09-18T06:13:30;10.52;;;5.22;;
69629;SDS011;56857;52.212;5.496;2023-09-18T06:15:56;9.57;;;4.97;;
69629;SDS011;56857;52.212;5.496;2023-09-18T06:18:21;11.13;;;5.38;;
69629;SDS011;56857;52.212;5.496;2023-09-18T06:20:48;10.90;;;5.85;;
69629;SDS011;56857;52.212;5.496;2023-09-18T06:23:13;13.20;;;5.88;;
69629;SDS011;56857;52.212;5.496;2023-09-18T06:25:39;10.27;;;5.72;;
69629;SDS011;56857;52.212;5.496;2023-09-18T06:28:05;11.43;;;5.68;;
69629;SDS011;56857;52.212;5.496;2023-09-18T06:30:30;10.40;;;5.57;;
69629;SDS011;56857;52.212;5.496;2023-09-18T06:32:56;11.02;;;6.45;;
69629;SDS011;56857;52.212;5.496;2023-09-18T06:35:22;11.88;;;6.35;;
69629;SDS011;56857;52.212;5.496;2023-09-18T06:37:47;16.42;;;7.57;;
69629;SDS011;56857;52.212;5.496;2023-09-18T06:40:13;14.70;;;7.93;;
69629;SDS011;56857;52.212;5.496;2023-09-18T06:42:38;14.73;;;8.35;;
69629;SDS011;56857;52.212;5.496;2023-09-18T06:45:03;17.33;;;9.05;;
69629;SDS011;56857;52.212;5.496;2023-09-18T06:47:29;13.77;;;8.20;;
69629;SDS011;56857;52.212;5.496;2023-09-18T06:49:54;14.95;;;9.13;;
69629;SDS011;56857;52.212;5.496;2023-09-18T06:52:19;14.02;;;8.88;;
69629;SDS011;56857;52.212;5.496;2023-09-18T06:54:45;15.85;;;8.98;;
69629;SDS011;56857;52.212;5.496;2023-09-18T06:57:10;18.60;;;9.13;;
69629;SDS011;56857;52.212;5.496;2023-09-18T06:59:35;14.45;;;9.23;;
69629;SDS011;56857;52.212;5.496;2023-09-18T07:02:01;15.10;;;9.68;;
69629;SDS011;56857;52.212;5.496;2023-09-18T07:04:27;15.77;;;9.68;;
69629;SDS011;56857;52.212;5.496;2023-09-18T07:06:52;13.45;;;8.82;;
69629;SDS011;56857;52.212;5.496;2023-09-18T07:09:17;14.68;;;9.48;;
69629;SDS011;56857;52.212;5.496;2023-09-18T07:11:42;16.02;;;10.30;;
69629;SDS011;56857;52.212;5.496;2023-09-18T07:14:08;15.73;;;9.73;;
69629;SDS011;56857;52.212;5.496;2023-09-18T07:16:33;14.20;;;9.80;;
69629;SDS011;56857;52.212;5.496;2023-09-18T07:18:58;21.70;;;10.43;;
69629;SDS011;56857;52.212;5.496;2023-09-18T07:21:24;15.43;;;9.68;;
69629;SDS011;56857;52.212;5.496;2023-09-18T07:23:49;15.27;;;10.10;;
69629;SDS011;56857;52.212;5.496;2023-09-18T07:26:14;20.52;;;10.55;;
69629;SDS011;56857;52.212;5.496;2023-09-18T07:28:40;14.77;;;9.83;;
69629;SDS011;56857;52.212;5.496;2023-09-18T07:31:05;16.73;;;10.95;;
69629;SDS011;56857;52.212;5.496;2023-09-18T07:33:33;17.73;;;10.90;;
69629;SDS011;56857;52.212;5.496;2023-09-18T07:35:58;17.70;;;10.80;;
69629;SDS011;56857;52.212;5.496;2023-09-18T07:38:23;18.33;;;11.27;;
69629;SDS011;56857;52.212;5.496;2023-09-18T07:40:48;15.25;;;10.25;;
69629;SDS011;56857;52.212;5.496;2023-09-18T07:43:14;18.50;;;10.73;;
69629;SDS011;56857;52.212;5.496;2023-09-18T07:45:39;18.85;;;10.77;;
69629;SDS011;56857;52.212;5.496;2023-09-18T07:48:05;17.90;;;10.50;;
69629;SDS011;56857;52.212;5.496;2023-09-18T07:50:31;17.63;;;10.32;;
69629;SDS011;56857;52.212;5.496;2023-09-18T07:52:57;17.55;;;10.20;;
69629;SDS011;56857;52.212;5.496;2023-09-18T07:55:22;13.82;;;9.80;;
69629;SDS011;56857;52.212;5.496;2023-09-18T07:57:47;14.90;;;10.00;;
69629;SDS011;56857;52.212;5.496;2023-09-18T08:00:13;14.10;;;9.77;;
69629;SDS011;56857;52.212;5.496;2023-09-18T08:02:39;13.38;;;9.05;;
69629;SDS011;56857;52.212;5.496;2023-09-18T08:05:05;13.77;;;8.57;;
69629;SDS011;56857;52.212;5.496;2023-09-18T08:07:30;14.23;;;9.40;;
69629;SDS011;56857;52.212;5.496;2023-09-18T08:09:56;14.43;;;9.65;;
69629;SDS011;56857;52.212;5.496;2023-09-18T08:12:22;15.73;;;8.77;;
69629;SDS011;56857;52.212;5.496;2023-09-18T08:14:48;11.85;;;8.63;;
69629;SDS011;56857;52.212;5.496;2023-09-18T08:17:14;13.18;;;8.65;;
69629;SDS011;56857;52.212;5.496;2023-09-18T08:19:39;17.58;;;8.50;;
69629;SDS011;56857;52.212;5.496;2023-09-18T08:22:04;14.40;;;8.73;;
69629;SDS011;56857;52.212;5.496;2023-09-18T08:24:30;12.98;;;7.95;;
69629;SDS011;56857;52.212;5.496;2023-09-18T08:26:55;11.93;;;7.70;;
69629;SDS011;56857;52.212;5.496;2023-09-18T08:29:21;10.68;;;7.05;;
69629;SDS011;56857;52.212;5.496;2023-09-18T08:31:47;11.00;;;7.07;;
69629;SDS011;56857;52.212;5.496;2023-09-18T08:34:13;13.75;;;6.95;;
69629;SDS011;56857;52.212;5.496;2023-09-18T08:36:38;12.55;;;6.50;;
69629;SDS011;56857;52.212;5.496;2023-09-18T08:39:03;10.32;;;6.88;;
69629;SDS011;56857;52.212;5.496;2023-09-18T08:41:29;10.68;;;6.53;;
69629;SDS011;56857;52.212;5.496;2023-09-18T08:43:57;9.25;;;6.40;;
69629;SDS011;56857;52.212;5.496;2023-09-18T08:46:26;12.02;;;6.40;;
69629;SDS011;56857;52.212;5.496;2023-09-18T08:48:52;10.18;;;6.43;;
69629;SDS011;56857;52.212;5.496;2023-09-18T08:51:19;10.05;;;5.82;;
69629;SDS011;56857;52.212;5.496;2023-09-18T08:53:46;9.60;;;5.93;;
69629;SDS011;56857;52.212;5.496;2023-09-18T08:56:12;10.30;;;5.50;;
69629;SDS011;56857;52.212;5.496;2023-09-18T08:58:38;10.35;;;5.70;;
69629;SDS011;56857;52.212;5.496;2023-09-18T09:01:04;11.40;;;5.13;;
69629;SDS011;56857;52.212;5.496;2023-09-18T09:03:31;8.60;;;5.30;;
69629;SDS011;56857;52.212;5.496;2023-09-18T09:05:56;10.82;;;6.00;;
69629;SDS011;56857;52.212;5.496;2023-09-18T09:08:23;9.80;;;5.53;;
69629;SDS011;56857;52.212;5.496;2023-09-18T09:10:48;11.88;;;5.35;;
69629;SDS011;56857;52.212;5.496;2023-09-18T09:13:14;9.65;;;5.55;;
69629;SDS011;56857;52.212;5.496;2023-09-18T09:15:46;8.90;;;5.07;;
69629;SDS011;56857;52.212;5.496;2023-09-18T09:18:12;9.73;;;4.72;;
69629;SDS011;56857;52.212;5.496;2023-09-18T09:20:38;9.10;;;4.38;;
69629;SDS011;56857;52.212;5.496;2023-09-18T09:23:04;10.95;;;4.95;;
69629;SDS011;56857;52.212;5.496;2023-09-18T09:25:31;8.20;;;4.68;;
69629;SDS011;56857;52.212;5.496;2023-09-18T09:27:58;8.85;;;4.63;;
69629;SDS011;56857;52.212;5.496;2023-09-18T09:30:26;10.60;;;4.75;;
69629;SDS011;56857;52.212;5.496;2023-09-18T09:32:53;9.60;;;4.70;;
69629;SDS011;56857;52.212;5.496;2023-09-18T09:35:21;7.75;;;4.32;;
69629;SDS011;56857;52.212;5.496;2023-09-18T09:37:50;8.82;;;4.80;;
69629;SDS011;56857;52.212;5.496;2023-09-18T09:40:16;9.30;;;4.20;;
69629;SDS011;56857;52.212;5.496;2023-09-18T09:42:41;8.48;;;4.20;;
69629;SDS011;56857;52.212;5.496;2023-09-18T09:45:11;7.78;;;4.22;;
69629;SDS011;56857;52.212;5.496;2023-09-18T09:47:39;10.02;;;4.28;;
69629;SDS011;56857;52.212;5.496;2023-09-18T09:50:08;6.60;;;3.85;;
69629;SDS011;56857;52.212;5.496;2023-09-18T09:52:35;9.10;;;4.20;;
69629;SDS011;56857;52.212;5.496;2023-09-18T09:55:02;9.60;;;4.20;;
69629;SDS011;56857;52.212;5.496;2023-09-18T09:57:28;10.45;;;4.68;;
69629;SDS011;56857;52.212;5.496;2023-09-18T09:59:53;7.50;;;4.53;;
69629;SDS011;56857;52.212;5.496;2023-09-18T10:02:28;10.00;;;4.60;;
69629;SDS011;56857;52.212;5.496;2023-09-18T10:04:54;9.40;;;4.80;;
69629;SDS011;56857;52.212;5.496;2023-09-18T10:07:20;7.72;;;4.72;;
69629;SDS011;56857;52.212;5.496;2023-09-18T10:09:46;8.48;;;5.32;;
69629;SDS011;56857;52.212;5.496;2023-09-18T10:12:14;9.25;;;5.35;;
69629;SDS011;56857;52.212;5.496;2023-09-18T10:14:42;7.88;;;5.53;;
69629;SDS011;56857;52.212;5.496;2023-09-18T10:17:15;8.27;;;6.07;;
69629;SDS011;56857;52.212;5.496;2023-09-18T10:19:45;11.48;;;7.20;;
69629;SDS011;56857;52.212;5.496;2023-09-18T10:22:30;12.02;;;7.50;;
69629;SDS011;56857;52.212;5.496;2023-09-18T10:24:57;11.15;;;7.68;;
69629;SDS011;56857;52.212;5.496;2023-09-18T10:27:31;9.63;;;6.97;;
69629;SDS011;56857;52.212;5.496;2023-09-18T10:29:57;10.02;;;6.85;;
69629;SDS011;56857;52.212;5.496;2023-09-18T10:32:24;8.75;;;6.35;;
69629;SDS011;56857;52.212;5.496;2023-09-18T10:34:51;8.18;;;6.07;;
69629;SDS011;56857;52.212;5.496;2023-09-18T10:37:17;10.45;;;6.25;;
69629;SDS011;56857;52.212;5.496;2023-09-18T10:39:43;8.75;;;6.10;;
69629;SDS011;56857;52.212;5.496;2023-09-18T10:42:11;10.68;;;5.95;;
69629;SDS011;56857;52.212;5.496;2023-09-18T10:44:37;8.35;;;5.80;;
69629;SDS011;56857;52.212;5.496;2023-09-18T10:47:03;10.32;;;6.20;;
69629;SDS011;56857;52.212;5.496;2023-09-18T10:49:30;9.60;;;6.25;;
69629;SDS011;56857;52.212;5.496;2023-09-18T10:51:55;9.27;;;6.22;;
69629;SDS011;56857;52.212;5.496;2023-09-18T10:54:22;9.90;;;6.03;;
69629;SDS011;56857;52.212;5.496;2023-09-18T10:56:49;8.52;;;6.25;;
69629;SDS011;56857;52.212;5.496;2023-09-18T10:59:15;9.45;;;7.00;;
69629;SDS011;56857;52.212;5.496;2023-09-18T11:01:41;8.93;;;6.47;;
69629;SDS011;56857;52.212;5.496;2023-09-18T11:04:08;9.60;;;6.57;;
69629;SDS011;56857;52.212;5.496;2023-09-18T11:09:19;10.32;;;6.78;;
69629;SDS011;56857;52.212;5.496;2023-09-18T11:11:46;10.27;;;6.30;;
69629;SDS011;56857;52.212;5.496;2023-09-18T11:14:11;10.82;;;7.25;;
69629;SDS011;56857;52.212;5.496;2023-09-18T11:16:37;9.63;;;6.35;;
69629;SDS011;56857;52.212;5.496;2023-09-18T11:21:28;10.03;;;6.70;;
69629;SDS011;56857;52.212;5.496;2023-09-18T11:23:59;9.88;;;6.88;;
69629;SDS011;56857;52.212;5.496;2023-09-18T11:26:32;10.50;;;5.65;;
69629;SDS011;56857;52.212;5.496;2023-09-18T11:29:21;11.68;;;6.05;;
69629;SDS011;56857;52.212;5.496;2023-09-18T11:31:48;11.30;;;5.80;;
69629;SDS011;56857;52.212;5.496;2023-09-18T11:34:25;8.48;;;5.63;;
69629;SDS011;56857;52.212;5.496;2023-09-18T11:36:54;10.90;;;6.22;;
69629;SDS011;56857;52.212;5.496;2023-09-18T11:39:33;10.38;;;5.85;;
69629;SDS011;56857;52.212;5.496;2023-09-18T11:44:43;11.25;;;5.50;;
69629;SDS011;56857;52.212;5.496;2023-09-18T11:47:09;8.88;;;5.10;;
69629;SDS011;56857;52.212;5.496;2023-09-18T11:49:39;10.88;;;4.63;;
69629;SDS011;56857;52.212;5.496;2023-09-18T11:52:11;9.13;;;4.85;;
69629;SDS011;56857;52.212;5.496;2023-09-18T11:54:39;11.30;;;4.80;;
69629;SDS011;56857;52.212;5.496;2023-09-18T11:57:04;9.93;;;4.43;;
69629;SDS011;56857;52.212;5.496;2023-09-18T11:59:37;8.00;;;4.50;;
69629;SDS011;56857;52.212;5.496;2023-09-18T12:02:04;9.88;;;4.63;;
69629;SDS011;56857;52.212;5.496;2023-09-18T12:04:29;8.25;;;4.63;;
69629;SDS011;56857;52.212;5.496;2023-09-18T12:06:55;9.83;;;5.43;;
69629;SDS011;56857;52.212;5.496;2023-09-18T12:09:20;9.35;;;5.30;;
69629;SDS011;56857;52.212;5.496;2023-09-18T12:11:45;8.02;;;5.53;;
69629;SDS011;56857;52.212;5.496;2023-09-18T12:14:10;11.65;;;6.13;;
69629;SDS011;56857;52.212;5.496;2023-09-18T12:16:39;8.07;;;5.82;;
69629;SDS011;56857;52.212;5.496;2023-09-18T12:19:04;10.60;;;6.82;;
69629;SDS011;56857;52.212;5.496;2023-09-18T12:21:30;11.85;;;7.20;;
69629;SDS011;56857;52.212;5.496;2023-09-18T12:23:55;9.93;;;6.50;;
69629;SDS011;56857;52.212;5.496;2023-09-18T12:26:20;14.65;;;7.07;;
69629;SDS011;56857;52.212;5.496;2023-09-18T12:28:46;11.82;;;5.82;;
69629;SDS011;56857;52.212;5.496;2023-09-18T12:31:12;10.57;;;5.93;;
69629;SDS011;56857;52.212;5.496;2023-09-18T12:33:38;10.32;;;5.80;;
69629;SDS011;56857;52.212;5.496;2023-09-18T12:36:05;9.05;;;5.25;;
69629;SDS011;56857;52.212;5.496;2023-09-18T12:38:31;11.38;;;5.32;;
69629;SDS011;56857;52.212;5.496;2023-09-18T12:40:57;12.20;;;4.75;;
69629;SDS011;56857;52.212;5.496;2023-09-18T12:43:24;10.23;;;4.97;;
69629;SDS011;56857;52.212;5.496;2023-09-18T12:45:49;10.07;;;4.75;;
69629;SDS011;56857;52.212;5.496;2023-09-18T12:48:16;9.63;;;4.82;;
69629;SDS011;56857;52.212;5.496;2023-09-18T12:50:41;7.57;;;4.78;;
69629;SDS011;56857;52.212;5.496;2023-09-18T12:55:32;8.83;;;5.00;;
69629;SDS011;56857;52.212;5.496;2023-09-18T12:57:58;9.35;;;4.70;;
69629;SDS011;56857;52.212;5.496;2023-09-18T13:00:23;10.82;;;4.85;;
69629;SDS011;56857;52.212;5.496;2023-09-18T13:02:49;9.00;;;5.15;;
69629;SDS011;56857;52.212;5.496;2023-09-18T13:05:18;10.20;;;4.63;;
69629;SDS011;56857;52.212;5.496;2023-09-18T13:07:44;8.98;;;4.40;;
69629;SDS011;56857;52.212;5.496;2023-09-18T13:10:10;11.50;;;4.40;;
69629;SDS011;56857;52.212;5.496;2023-09-18T13:12:48;9.90;;;4.35;;
69629;SDS011;56857;52.212;5.496;2023-09-18T13:15:23;8.30;;;4.55;;
69629;SDS011;56857;52.212;5.496;2023-09-18T13:17:50;11.38;;;5.20;;
69629;SDS011;56857;52.212;5.496;2023-09-18T13:20:16;8.35;;;4.15;;
69629;SDS011;56857;52.212;5.496;2023-09-18T13:22:48;9.32;;;5.03;;
69629;SDS011;56857;52.212;5.496;2023-09-18T13:25:22;8.98;;;4.90;;
69629;SDS011;56857;52.212;5.496;2023-09-18T13:27:49;9.70;;;4.50;;
69629;SDS011;56857;52.212;5.496;2023-09-18T13:30:15;11.82;;;5.07;;
69629;SDS011;56857;52.212;5.496;2023-09-18T13:32:41;7.45;;;4.68;;
69629;SDS011;56857;52.212;5.496;2023-09-18T13:35:06;7.80;;;4.15;;
69629;SDS011;56857;52.212;5.496;2023-09-18T13:37:33;9.48;;;4.75;;
69629;SDS011;56857;52.212;5.496;2023-09-18T13:39:59;8.98;;;4.20;;
69629;SDS011;56857;52.212;5.496;2023-09-18T13:42:24;7.32;;;3.92;;
69629;SDS011;56857;52.212;5.496;2023-09-18T13:44:50;9.05;;;4.28;;
69629;SDS011;56857;52.212;5.496;2023-09-18T13:47:15;9.25;;;4.30;;
69629;SDS011;56857;52.212;5.496;2023-09-18T13:49:40;11.38;;;4.63;;
69629;SDS011;56857;52.212;5.496;2023-09-18T13:52:06;7.97;;;3.70;;
69629;SDS011;56857;52.212;5.496;2023-09-18T13:54:31;8.77;;;3.63;;
69629;SDS011;56857;52.212;5.496;2023-09-18T13:56:57;8.18;;;3.58;;
69629;SDS011;56857;52.212;5.496;2023-09-18T13:59:22;8.38;;;3.42;;
69629;SDS011;56857;52.212;5.496;2023-09-18T14:01:47;9.68;;;3.40;;
69629;SDS011;56857;52.212;5.496;2023-09-18T14:04:13;7.40;;;3.15;;
69629;SDS011;56857;52.212;5.496;2023-09-18T14:06:38;7.80;;;2.90;;
69629;SDS011;56857;52.212;5.496;2023-09-18T14:09:03;9.15;;;3.10;;
69629;SDS011;56857;52.212;5.496;2023-09-18T14:11:28;7.88;;;3.25;;
69629;SDS011;56857;52.212;5.496;2023-09-18T14:13:54;6.93;;;3.00;;
69629;SDS011;56857;52.212;5.496;2023-09-18T14:16:19;5.88;;;2.75;;
69629;SDS011;56857;52.212;5.496;2023-09-18T14:18:44;9.65;;;3.13;;
69629;SDS011;56857;52.212;5.496;2023-09-18T14:21:10;8.10;;;3.00;;
69629;SDS011;56857;52.212;5.496;2023-09-18T14:23:35;5.47;;;2.50;;
69629;SDS011;56857;52.212;5.496;2023-09-18T14:26:00;5.90;;;2.72;;
69629;SDS011;56857;52.212;5.496;2023-09-18T14:28:26;4.63;;;2.15;;
69629;SDS011;56857;52.212;5.496;2023-09-18T14:30:51;8.32;;;3.00;;
69629;SDS011;56857;52.212;5.496;2023-09-18T14:33:17;5.30;;;2.53;;
69629;SDS011;56857;52.212;5.496;2023-09-18T14:35:42;6.65;;;2.45;;
69629;SDS011;56857;52.212;5.496;2023-09-18T14:38:07;7.17;;;2.77;;
69629;SDS011;56857;52.212;5.496;2023-09-18T14:40:33;7.82;;;2.58;;